sensor_id;sensor_type;location;lat;lon;timestamp;P1;durP1;ratioP1;P2;durP2;ratioP2
20185;SDS011;10252;48.792;8.582;2023-06-26T00:02:33;7.97;;;6.75;;
20185;SDS011;10252;48.792;8.582;2023-06-26T00:07:34;8.80;;;7.03;;
20185;SDS011;10252;48.792;8.582;2023-06-26T00:12:37;10.32;;;7.40;;
20185;SDS011;10252;48.792;8.582;2023-06-26T00:17:38;10.80;;;7.45;;
20185;SDS011;10252;48.792;8.582;2023-06-26T00:22:40;9.02;;;6.85;;
20185;SDS011;10252;48.792;8.582;2023-06-26T00:27:42;9.10;;;7.60;;
20185;SDS011;10252;48.792;8.582;2023-06-26T00:32:44;8.27;;;6.80;;
20185;SDS011;10252;48.792;8.582;2023-06-26T00:37:49;8.93;;;7.30;;
20185;SDS011;10252;48.792;8.582;2023-06-26T00:42:51;9.60;;;7.38;;
20185;SDS011;10252;48.792;8.582;2023-06-26T00:47:52;10.38;;;7.38;;
20185;SDS011;10252;48.792;8.582;2023-06-26T00:52:55;7.63;;;6.75;;
20185;SDS011;10252;48.792;8.582;2023-06-26T00:58:01;9.10;;;6.72;;
20185;SDS011;10252;48.792;8.582;2023-06-26T01:03:03;8.02;;;7.15;;
20185;SDS011;10252;48.792;8.582;2023-06-26T01:08:04;11.98;;;7.82;;
20185;SDS011;10252;48.792;8.582;2023-06-26T01:13:05;11.88;;;6.97;;
20185;SDS011;10252;48.792;8.582;2023-06-26T01:18:07;8.48;;;7.18;;
20185;SDS011;10252;48.792;8.582;2023-06-26T01:23:20;10.43;;;7.65;;
20185;SDS011;10252;48.792;8.582;2023-06-26T01:28:23;9.55;;;7.68;;
20185;SDS011;10252;48.792;8.582;2023-06-26T01:33:26;8.50;;;6.97;;
20185;SDS011;10252;48.792;8.582;2023-06-26T01:38:27;8.68;;;7.35;;
20185;SDS011;10252;48.792;8.582;2023-06-26T01:43:36;8.90;;;7.22;;
20185;SDS011;10252;48.792;8.582;2023-06-26T01:54:13;9.55;;;7.90;;
20185;SDS011;10252;48.792;8.582;2023-06-26T01:59:19;9.80;;;7.60;;
20185;SDS011;10252;48.792;8.582;2023-06-26T02:04:22;10.50;;;8.00;;
20185;SDS011;10252;48.792;8.582;2023-06-26T02:09:23;8.75;;;7.35;;
20185;SDS011;10252;48.792;8.582;2023-06-26T02:14:25;10.45;;;7.50;;
20185;SDS011;10252;48.792;8.582;2023-06-26T02:19:26;10.38;;;7.35;;
20185;SDS011;10252;48.792;8.582;2023-06-26T02:24:28;12.05;;;8.52;;
20185;SDS011;10252;48.792;8.582;2023-06-26T02:29:32;10.48;;;7.60;;
20185;SDS011;10252;48.792;8.582;2023-06-26T02:34:34;9.55;;;7.90;;
20185;SDS011;10252;48.792;8.582;2023-06-26T02:39:36;9.82;;;7.80;;
20185;SDS011;10252;48.792;8.582;2023-06-26T02:44:37;9.73;;;7.57;;
20185;SDS011;10252;48.792;8.582;2023-06-26T02:49:39;10.05;;;7.53;;
20185;SDS011;10252;48.792;8.582;2023-06-26T02:54:44;11.40;;;7.78;;
20185;SDS011;10252;48.792;8.582;2023-06-26T02:59:47;10.45;;;7.93;;
20185;SDS011;10252;48.792;8.582;2023-06-26T03:04:48;9.75;;;7.72;;
20185;SDS011;10252;48.792;8.582;2023-06-26T03:09:51;10.35;;;7.70;;
20185;SDS011;10252;48.792;8.582;2023-06-26T03:14:54;9.10;;;7.43;;
20185;SDS011;10252;48.792;8.582;2023-06-26T03:19:56;8.88;;;7.43;;
20185;SDS011;10252;48.792;8.582;2023-06-26T03:25:03;9.63;;;7.25;;
20185;SDS011;10252;48.792;8.582;2023-06-26T03:30:06;12.45;;;7.55;;
20185;SDS011;10252;48.792;8.582;2023-06-26T03:35:10;9.13;;;7.75;;
20185;SDS011;10252;48.792;8.582;2023-06-26T03:40:12;9.70;;;7.20;;
20185;SDS011;10252;48.792;8.582;2023-06-26T03:45:13;11.52;;;8.10;;
20185;SDS011;10252;48.792;8.582;2023-06-26T03:50:18;8.45;;;6.50;;
20185;SDS011;10252;48.792;8.582;2023-06-26T03:55:21;9.85;;;7.07;;
20185;SDS011;10252;48.792;8.582;2023-06-26T04:00:24;11.50;;;7.50;;
20185;SDS011;10252;48.792;8.582;2023-06-26T04:05:25;9.98;;;8.25;;
20185;SDS011;10252;48.792;8.582;2023-06-26T04:10:26;10.80;;;7.43;;
20185;SDS011;10252;48.792;8.582;2023-06-26T04:15:28;8.27;;;7.22;;
20185;SDS011;10252;48.792;8.582;2023-06-26T04:20:30;11.20;;;7.70;;
20185;SDS011;10252;48.792;8.582;2023-06-26T04:25:31;10.20;;;7.68;;
20185;SDS011;10252;48.792;8.582;2023-06-26T04:30:34;10.68;;;7.60;;
20185;SDS011;10252;48.792;8.582;2023-06-26T04:35:35;10.48;;;8.00;;
20185;SDS011;10252;48.792;8.582;2023-06-26T04:40:37;10.48;;;7.53;;
20185;SDS011;10252;48.792;8.582;2023-06-26T04:45:38;10.80;;;8.27;;
20185;SDS011;10252;48.792;8.582;2023-06-26T04:50:40;9.38;;;7.70;;
20185;SDS011;10252;48.792;8.582;2023-06-26T04:55:42;11.73;;;8.40;;
20185;SDS011;10252;48.792;8.582;2023-06-26T05:00:43;10.70;;;7.38;;
20185;SDS011;10252;48.792;8.582;2023-06-26T05:05:45;10.77;;;7.80;;
20185;SDS011;10252;48.792;8.582;2023-06-26T05:10:46;9.20;;;6.85;;
20185;SDS011;10252;48.792;8.582;2023-06-26T05:15:48;8.23;;;6.95;;
20185;SDS011;10252;48.792;8.582;2023-06-26T05:20:49;9.77;;;7.38;;
20185;SDS011;10252;48.792;8.582;2023-06-26T05:25:52;9.07;;;6.72;;
20185;SDS011;10252;48.792;8.582;2023-06-26T05:30:54;9.43;;;6.70;;
20185;SDS011;10252;48.792;8.582;2023-06-26T05:35:56;9.35;;;7.07;;
20185;SDS011;10252;48.792;8.582;2023-06-26T05:41:00;7.05;;;6.35;;
20185;SDS011;10252;48.792;8.582;2023-06-26T05:46:01;7.72;;;6.72;;
20185;SDS011;10252;48.792;8.582;2023-06-26T05:51:03;9.32;;;7.03;;
20185;SDS011;10252;48.792;8.582;2023-06-26T05:56:05;7.72;;;6.25;;
20185;SDS011;10252;48.792;8.582;2023-06-26T06:01:06;8.73;;;6.57;;
20185;SDS011;10252;48.792;8.582;2023-06-26T06:06:10;7.25;;;6.25;;
20185;SDS011;10252;48.792;8.582;2023-06-26T06:11:11;8.20;;;6.88;;
20185;SDS011;10252;48.792;8.582;2023-06-26T06:16:15;8.18;;;6.30;;
20185;SDS011;10252;48.792;8.582;2023-06-26T06:21:16;7.40;;;6.28;;
20185;SDS011;10252;48.792;8.582;2023-06-26T06:26:18;6.32;;;5.47;;
20185;SDS011;10252;48.792;8.582;2023-06-26T06:31:20;8.63;;;6.07;;
20185;SDS011;10252;48.792;8.582;2023-06-26T06:36:21;6.88;;;6.10;;
20185;SDS011;10252;48.792;8.582;2023-06-26T06:41:22;6.43;;;5.40;;
20185;SDS011;10252;48.792;8.582;2023-06-26T06:46:24;7.35;;;6.07;;
20185;SDS011;10252;48.792;8.582;2023-06-26T06:51:27;9.27;;;6.60;;
20185;SDS011;10252;48.792;8.582;2023-06-26T06:56:28;7.80;;;6.15;;
20185;SDS011;10252;48.792;8.582;2023-06-26T07:01:30;6.35;;;5.57;;
20185;SDS011;10252;48.792;8.582;2023-06-26T07:06:31;6.50;;;5.85;;
20185;SDS011;10252;48.792;8.582;2023-06-26T07:11:35;6.13;;;4.78;;
20185;SDS011;10252;48.792;8.582;2023-06-26T07:16:36;5.28;;;4.78;;
20185;SDS011;10252;48.792;8.582;2023-06-26T07:21:38;5.90;;;5.30;;
20185;SDS011;10252;48.792;8.582;2023-06-26T07:26:39;5.78;;;4.45;;
20185;SDS011;10252;48.792;8.582;2023-06-26T07:31:41;5.63;;;5.13;;
20185;SDS011;10252;48.792;8.582;2023-06-26T07:36:43;5.80;;;5.28;;
20185;SDS011;10252;48.792;8.582;2023-06-26T07:41:44;6.82;;;5.50;;
20185;SDS011;10252;48.792;8.582;2023-06-26T07:46:45;5.60;;;4.80;;
20185;SDS011;10252;48.792;8.582;2023-06-26T07:51:47;5.65;;;5.15;;
20185;SDS011;10252;48.792;8.582;2023-06-26T07:56:55;5.75;;;4.90;;
20185;SDS011;10252;48.792;8.582;2023-06-26T08:01:57;5.75;;;5.22;;
20185;SDS011;10252;48.792;8.582;2023-06-26T08:06:59;5.97;;;4.95;;
20185;SDS011;10252;48.792;8.582;2023-06-26T08:12:01;6.10;;;5.50;;
20185;SDS011;10252;48.792;8.582;2023-06-26T08:17:03;6.15;;;5.55;;
20185;SDS011;10252;48.792;8.582;2023-06-26T08:22:05;6.10;;;5.60;;
20185;SDS011;10252;48.792;8.582;2023-06-26T08:27:06;6.10;;;5.57;;
20185;SDS011;10252;48.792;8.582;2023-06-26T08:32:08;6.70;;;5.95;;
20185;SDS011;10252;48.792;8.582;2023-06-26T08:37:09;6.55;;;5.80;;
20185;SDS011;10252;48.792;8.582;2023-06-26T08:42:11;7.10;;;6.40;;
20185;SDS011;10252;48.792;8.582;2023-06-26T08:47:12;7.47;;;6.32;;
20185;SDS011;10252;48.792;8.582;2023-06-26T08:52:19;6.80;;;6.20;;
20185;SDS011;10252;48.792;8.582;2023-06-26T08:57:23;6.70;;;5.93;;
20185;SDS011;10252;48.792;8.582;2023-06-26T09:02:26;6.95;;;6.25;;
20185;SDS011;10252;48.792;8.582;2023-06-26T09:07:28;8.40;;;7.38;;
20185;SDS011;10252;48.792;8.582;2023-06-26T09:12:30;7.65;;;6.95;;
20185;SDS011;10252;48.792;8.582;2023-06-26T09:17:39;7.95;;;7.15;;
20185;SDS011;10252;48.792;8.582;2023-06-26T09:22:43;8.50;;;7.50;;
20185;SDS011;10252;48.792;8.582;2023-06-26T09:27:48;8.32;;;7.40;;
20185;SDS011;10252;48.792;8.582;2023-06-26T09:32:50;8.68;;;7.63;;
20185;SDS011;10252;48.792;8.582;2023-06-26T09:37:54;8.20;;;7.40;;
20185;SDS011;10252;48.792;8.582;2023-06-26T09:43:02;9.30;;;7.70;;
20185;SDS011;10252;48.792;8.582;2023-06-26T09:48:03;8.52;;;7.65;;
20185;SDS011;10252;48.792;8.582;2023-06-26T09:53:08;9.18;;;7.00;;
20185;SDS011;10252;48.792;8.582;2023-06-26T09:58:10;7.93;;;7.13;;
20185;SDS011;10252;48.792;8.582;2023-06-26T10:03:15;7.78;;;7.07;;
20185;SDS011;10252;48.792;8.582;2023-06-26T10:08:17;9.90;;;7.28;;
20185;SDS011;10252;48.792;8.582;2023-06-26T10:13:22;8.00;;;7.07;;
20185;SDS011;10252;48.792;8.582;2023-06-26T10:18:26;7.68;;;6.90;;
20185;SDS011;10252;48.792;8.582;2023-06-26T10:23:29;7.15;;;6.28;;
20185;SDS011;10252;48.792;8.582;2023-06-26T10:28:32;8.27;;;6.32;;
20185;SDS011;10252;48.792;8.582;2023-06-26T10:33:34;6.90;;;6.20;;
20185;SDS011;10252;48.792;8.582;2023-06-26T10:38:52;11.15;;;6.15;;
20185;SDS011;10252;48.792;8.582;2023-06-26T10:49:02;7.07;;;6.40;;
20185;SDS011;10252;48.792;8.582;2023-06-26T10:54:03;6.80;;;6.15;;
20185;SDS011;10252;48.792;8.582;2023-06-26T10:59:17;6.88;;;6.18;;
20185;SDS011;10252;48.792;8.582;2023-06-26T11:04:18;7.63;;;6.28;;
20185;SDS011;10252;48.792;8.582;2023-06-26T11:09:23;8.45;;;6.63;;
20185;SDS011;10252;48.792;8.582;2023-06-26T11:14:25;6.45;;;5.90;;
20185;SDS011;10252;48.792;8.582;2023-06-26T11:19:30;6.90;;;6.15;;
20185;SDS011;10252;48.792;8.582;2023-06-26T11:24:32;7.15;;;6.53;;
20185;SDS011;10252;48.792;8.582;2023-06-26T11:29:34;7.47;;;6.25;;
20185;SDS011;10252;48.792;8.582;2023-06-26T11:34:36;7.47;;;6.20;;
20185;SDS011;10252;48.792;8.582;2023-06-26T11:39:38;6.60;;;6.00;;
20185;SDS011;10252;48.792;8.582;2023-06-26T11:44:40;6.82;;;6.18;;
20185;SDS011;10252;48.792;8.582;2023-06-26T11:49:47;6.65;;;5.20;;
20185;SDS011;10252;48.792;8.582;2023-06-26T11:54:49;9.07;;;5.43;;
20185;SDS011;10252;48.792;8.582;2023-06-26T11:59:51;6.40;;;5.80;;
20185;SDS011;10252;48.792;8.582;2023-06-26T12:04:52;11.40;;;5.65;;
20185;SDS011;10252;48.792;8.582;2023-06-26T12:09:54;6.97;;;5.65;;
20185;SDS011;10252;48.792;8.582;2023-06-26T12:14:56;6.45;;;4.82;;
20185;SDS011;10252;48.792;8.582;2023-06-26T12:19:58;5.30;;;4.72;;
20185;SDS011;10252;48.792;8.582;2023-06-26T12:25:00;4.72;;;4.10;;
20185;SDS011;10252;48.792;8.582;2023-06-26T12:30:02;5.07;;;4.55;;
20185;SDS011;10252;48.792;8.582;2023-06-26T12:35:05;5.75;;;4.65;;
20185;SDS011;10252;48.792;8.582;2023-06-26T12:40:19;9.45;;;4.93;;
20185;SDS011;10252;48.792;8.582;2023-06-26T12:45:24;6.80;;;4.90;;
20185;SDS011;10252;48.792;8.582;2023-06-26T12:50:26;6.70;;;4.70;;
20185;SDS011;10252;48.792;8.582;2023-06-26T12:55:27;4.85;;;4.10;;
20185;SDS011;10252;48.792;8.582;2023-06-26T13:00:29;4.78;;;4.05;;
20185;SDS011;10252;48.792;8.582;2023-06-26T13:05:32;6.55;;;3.78;;
20185;SDS011;10252;48.792;8.582;2023-06-26T13:10:34;5.55;;;3.90;;
20185;SDS011;10252;48.792;8.582;2023-06-26T13:15:35;8.63;;;4.13;;
20185;SDS011;10252;48.792;8.582;2023-06-26T13:20:37;4.25;;;3.80;;
20185;SDS011;10252;48.792;8.582;2023-06-26T13:25:38;4.80;;;3.50;;
20185;SDS011;10252;48.792;8.582;2023-06-26T13:30:40;4.72;;;3.72;;
20185;SDS011;10252;48.792;8.582;2023-06-26T13:35:41;4.32;;;3.92;;
20185;SDS011;10252;48.792;8.582;2023-06-26T13:40:43;4.85;;;3.80;;
20185;SDS011;10252;48.792;8.582;2023-06-26T13:45:44;4.18;;;3.83;;
20185;SDS011;10252;48.792;8.582;2023-06-26T13:50:46;6.05;;;4.30;;
20185;SDS011;10252;48.792;8.582;2023-06-26T13:55:48;6.72;;;4.00;;
20185;SDS011;10252;48.792;8.582;2023-06-26T14:00:49;6.22;;;3.65;;
20185;SDS011;10252;48.792;8.582;2023-06-26T14:05:51;5.25;;;3.80;;
20185;SDS011;10252;48.792;8.582;2023-06-26T14:10:52;5.85;;;4.10;;
20185;SDS011;10252;48.792;8.582;2023-06-26T14:15:54;4.85;;;4.35;;
20185;SDS011;10252;48.792;8.582;2023-06-26T14:20:57;7.05;;;4.32;;
20185;SDS011;10252;48.792;8.582;2023-06-26T14:25:58;6.32;;;4.97;;
20185;SDS011;10252;48.792;8.582;2023-06-26T14:31:00;8.02;;;5.30;;
20185;SDS011;10252;48.792;8.582;2023-06-26T14:36:01;6.30;;;5.38;;
20185;SDS011;10252;48.792;8.582;2023-06-26T14:41:04;6.18;;;5.35;;
20185;SDS011;10252;48.792;8.582;2023-06-26T14:46:06;6.88;;;6.10;;
20185;SDS011;10252;48.792;8.582;2023-06-26T14:51:07;8.57;;;6.53;;
20185;SDS011;10252;48.792;8.582;2023-06-26T14:56:08;7.85;;;7.05;;
20185;SDS011;10252;48.792;8.582;2023-06-26T15:01:10;8.57;;;6.57;;
20185;SDS011;10252;48.792;8.582;2023-06-26T15:06:14;9.07;;;7.30;;
20185;SDS011;10252;48.792;8.582;2023-06-26T15:11:15;11.68;;;7.13;;
20185;SDS011;10252;48.792;8.582;2023-06-26T15:16:17;10.57;;;7.30;;
20185;SDS011;10252;48.792;8.582;2023-06-26T15:21:19;10.13;;;6.50;;
20185;SDS011;10252;48.792;8.582;2023-06-26T15:26:20;7.10;;;5.88;;
20185;SDS011;10252;48.792;8.582;2023-06-26T15:31:22;10.43;;;6.90;;
20185;SDS011;10252;48.792;8.582;2023-06-26T15:36:24;7.15;;;5.45;;
20185;SDS011;10252;48.792;8.582;2023-06-26T15:41:25;8.60;;;5.78;;
20185;SDS011;10252;48.792;8.582;2023-06-26T15:46:28;5.35;;;4.85;;
20185;SDS011;10252;48.792;8.582;2023-06-26T15:51:29;7.07;;;4.75;;
20185;SDS011;10252;48.792;8.582;2023-06-26T15:56:33;6.47;;;3.80;;
20185;SDS011;10252;48.792;8.582;2023-06-26T16:01:34;9.85;;;4.22;;
20185;SDS011;10252;48.792;8.582;2023-06-26T16:06:36;5.35;;;3.25;;
20185;SDS011;10252;48.792;8.582;2023-06-26T16:11:37;7.65;;;3.60;;
20185;SDS011;10252;48.792;8.582;2023-06-26T16:16:39;3.45;;;2.50;;
20185;SDS011;10252;48.792;8.582;2023-06-26T16:21:40;6.22;;;2.55;;
20185;SDS011;10252;48.792;8.582;2023-06-26T16:26:42;4.82;;;2.55;;
20185;SDS011;10252;48.792;8.582;2023-06-26T16:31:43;4.55;;;1.98;;
20185;SDS011;10252;48.792;8.582;2023-06-26T16:36:46;3.13;;;1.80;;
20185;SDS011;10252;48.792;8.582;2023-06-26T16:41:52;5.30;;;2.53;;
20185;SDS011;10252;48.792;8.582;2023-06-26T16:46:57;5.10;;;2.25;;
20185;SDS011;10252;48.792;8.582;2023-06-26T16:51:58;4.30;;;2.10;;
20185;SDS011;10252;48.792;8.582;2023-06-26T16:57:01;2.35;;;1.77;;
20185;SDS011;10252;48.792;8.582;2023-06-26T17:02:03;3.08;;;2.17;;
20185;SDS011;10252;48.792;8.582;2023-06-26T17:07:05;5.93;;;2.42;;
20185;SDS011;10252;48.792;8.582;2023-06-26T17:12:07;4.35;;;2.05;;
20185;SDS011;10252;48.792;8.582;2023-06-26T17:17:09;3.92;;;1.83;;
20185;SDS011;10252;48.792;8.582;2023-06-26T17:22:10;3.75;;;1.90;;
20185;SDS011;10252;48.792;8.582;2023-06-26T17:27:13;8.40;;;1.98;;
20185;SDS011;10252;48.792;8.582;2023-06-26T17:32:17;2.75;;;2.03;;
20185;SDS011;10252;48.792;8.582;2023-06-26T17:37:19;3.78;;;1.98;;
20185;SDS011;10252;48.792;8.582;2023-06-26T17:42:23;4.03;;;1.63;;
20185;SDS011;10252;48.792;8.582;2023-06-26T17:47:24;4.47;;;1.60;;
20185;SDS011;10252;48.792;8.582;2023-06-26T17:52:27;3.47;;;1.50;;
20185;SDS011;10252;48.792;8.582;2023-06-26T17:57:29;4.57;;;1.88;;
20185;SDS011;10252;48.792;8.582;2023-06-26T18:02:30;4.63;;;1.58;;
20185;SDS011;10252;48.792;8.582;2023-06-26T18:07:33;6.13;;;1.65;;
20185;SDS011;10252;48.792;8.582;2023-06-26T18:12:36;4.82;;;2.03;;
20185;SDS011;10252;48.792;8.582;2023-06-26T18:17:37;4.18;;;1.73;;
20185;SDS011;10252;48.792;8.582;2023-06-26T18:22:39;4.57;;;1.60;;
20185;SDS011;10252;48.792;8.582;2023-06-26T18:27:41;2.97;;;1.40;;
20185;SDS011;10252;48.792;8.582;2023-06-26T18:32:43;6.35;;;1.80;;
20185;SDS011;10252;48.792;8.582;2023-06-26T18:37:44;5.57;;;1.67;;
20185;SDS011;10252;48.792;8.582;2023-06-26T18:42:46;2.85;;;1.58;;
20185;SDS011;10252;48.792;8.582;2023-06-26T18:47:48;4.63;;;1.30;;
20185;SDS011;10252;48.792;8.582;2023-06-26T18:52:50;2.88;;;1.30;;
20185;SDS011;10252;48.792;8.582;2023-06-26T18:57:52;3.10;;;1.23;;
20185;SDS011;10252;48.792;8.582;2023-06-26T19:02:54;7.13;;;1.60;;
20185;SDS011;10252;48.792;8.582;2023-06-26T19:07:56;4.93;;;1.40;;
20185;SDS011;10252;48.792;8.582;2023-06-26T19:12:58;5.90;;;1.92;;
20185;SDS011;10252;48.792;8.582;2023-06-26T19:18:00;3.35;;;1.60;;
20185;SDS011;10252;48.792;8.582;2023-06-26T19:23:01;3.58;;;1.38;;
20185;SDS011;10252;48.792;8.582;2023-06-26T19:28:03;2.30;;;1.40;;
20185;SDS011;10252;48.792;8.582;2023-06-26T19:33:04;5.18;;;1.50;;
20185;SDS011;10252;48.792;8.582;2023-06-26T19:38:06;3.10;;;1.30;;
20185;SDS011;10252;48.792;8.582;2023-06-26T19:43:09;6.35;;;1.90;;
20185;SDS011;10252;48.792;8.582;2023-06-26T19:48:14;5.10;;;1.60;;
20185;SDS011;10252;48.792;8.582;2023-06-26T19:53:15;4.57;;;1.65;;
20185;SDS011;10252;48.792;8.582;2023-06-26T19:58:17;3.88;;;1.60;;
20185;SDS011;10252;48.792;8.582;2023-06-26T20:03:18;2.72;;;1.42;;
20185;SDS011;10252;48.792;8.582;2023-06-26T20:08:20;6.15;;;1.52;;
20185;SDS011;10252;48.792;8.582;2023-06-26T20:13:23;4.32;;;1.63;;
20185;SDS011;10252;48.792;8.582;2023-06-26T20:18:25;5.60;;;1.85;;
20185;SDS011;10252;48.792;8.582;2023-06-26T20:23:27;2.92;;;2.08;;
20185;SDS011;10252;48.792;8.582;2023-06-26T20:28:28;5.13;;;2.65;;
20185;SDS011;10252;48.792;8.582;2023-06-26T20:33:32;3.70;;;1.77;;
20185;SDS011;10252;48.792;8.582;2023-06-26T20:38:34;4.03;;;1.90;;
20185;SDS011;10252;48.792;8.582;2023-06-26T20:43:39;3.70;;;1.95;;
20185;SDS011;10252;48.792;8.582;2023-06-26T20:48:42;5.20;;;1.70;;
20185;SDS011;10252;48.792;8.582;2023-06-26T20:53:44;6.68;;;2.08;;
20185;SDS011;10252;48.792;8.582;2023-06-26T20:58:45;4.10;;;1.80;;
20185;SDS011;10252;48.792;8.582;2023-06-26T21:03:48;5.45;;;1.80;;
20185;SDS011;10252;48.792;8.582;2023-06-26T21:08:51;4.60;;;1.80;;
20185;SDS011;10252;48.792;8.582;2023-06-26T21:13:53;3.20;;;1.88;;
20185;SDS011;10252;48.792;8.582;2023-06-26T21:18:54;5.53;;;1.80;;
20185;SDS011;10252;48.792;8.582;2023-06-26T21:23:59;3.53;;;1.80;;
20185;SDS011;10252;48.792;8.582;2023-06-26T21:29:02;5.30;;;2.15;;
20185;SDS011;10252;48.792;8.582;2023-06-26T21:34:03;4.10;;;1.95;;
20185;SDS011;10252;48.792;8.582;2023-06-26T21:39:05;3.83;;;2.20;;
20185;SDS011;10252;48.792;8.582;2023-06-26T21:44:06;6.18;;;1.90;;
20185;SDS011;10252;48.792;8.582;2023-06-26T21:49:08;4.03;;;1.65;;
20185;SDS011;10252;48.792;8.582;2023-06-26T21:54:09;3.25;;;1.55;;
20185;SDS011;10252;48.792;8.582;2023-06-26T21:59:11;4.10;;;2.00;;
20185;SDS011;10252;48.792;8.582;2023-06-26T22:04:12;6.70;;;2.55;;
20185;SDS011;10252;48.792;8.582;2023-06-26T22:09:14;5.38;;;1.80;;
20185;SDS011;10252;48.792;8.582;2023-06-26T22:14:15;3.08;;;1.63;;
20185;SDS011;10252;48.792;8.582;2023-06-26T22:19:17;4.63;;;2.20;;
20185;SDS011;10252;48.792;8.582;2023-06-26T22:24:18;3.40;;;1.77;;
20185;SDS011;10252;48.792;8.582;2023-06-26T22:29:20;5.90;;;1.92;;
20185;SDS011;10252;48.792;8.582;2023-06-26T22:34:24;3.60;;;1.75;;
20185;SDS011;10252;48.792;8.582;2023-06-26T22:39:26;7.72;;;1.88;;
20185;SDS011;10252;48.792;8.582;2023-06-26T22:44:27;3.63;;;1.52;;
20185;SDS011;10252;48.792;8.582;2023-06-26T22:49:29;4.85;;;1.90;;
20185;SDS011;10252;48.792;8.582;2023-06-26T22:54:30;3.80;;;1.92;;
20185;SDS011;10252;48.792;8.582;2023-06-26T22:59:31;2.38;;;1.75;;
20185;SDS011;10252;48.792;8.582;2023-06-26T23:04:33;5.32;;;2.28;;
20185;SDS011;10252;48.792;8.582;2023-06-26T23:09:34;4.22;;;1.73;;
20185;SDS011;10252;48.792;8.582;2023-06-26T23:14:36;5.18;;;2.25;;
20185;SDS011;10252;48.792;8.582;2023-06-26T23:19:40;3.20;;;1.70;;
20185;SDS011;10252;48.792;8.582;2023-06-26T23:24:42;3.25;;;1.80;;
20185;SDS011;10252;48.792;8.582;2023-06-26T23:29:43;4.65;;;2.28;;
20185;SDS011;10252;48.792;8.582;2023-06-26T23:34:46;6.78;;;2.08;;
20185;SDS011;10252;48.792;8.582;2023-06-26T23:39:48;2.70;;;1.83;;
20185;SDS011;10252;48.792;8.582;2023-06-26T23:44:50;3.75;;;1.80;;
20185;SDS011;10252;48.792;8.582;2023-06-26T23:49:51;3.13;;;1.67;;
20185;SDS011;10252;48.792;8.582;2023-06-26T23:54:53;5.95;;;2.08;;
20185;SDS011;10252;48.792;8.582;2023-06-26T23:59:54;6.00;;;1.90;;
